Aérodrome :
LOGIN :

S'inscrire | Disclaimer

   EN    FR    IT 

 










Légende :    VFR   VFR Marginal   IFR   IFR Intensif   IFR Très Intensif
Visi : 
Plafond : 
>= 8 km
>= 3000ft
5 à 8 km
1000 à 3000 ft
1500m à 5 km
500 à 1000 ft
800 à 1500m
200 à 500 ft
< 800m
< 200 ft
Symboles :   Orages  Brouillard  Fortes neiges  Fortes précipitations  Vent > 20 kt
SIGMETs :   Divers  Orages  Givrage  Turbulence  Onde Orograph.  Cendres Volcan.






- Altitude de l'aérodrome : 160 ft
- Code IATA : FMO


EDDG - Münster Osnabrück Int.

DERNIER METAR :
  • 301850Z 23018G31KT 150V280 9999 VCTS FEW035 FEW047CB 24/15 Q1009 TEMPO 26025G45KT 3000 TSGRRA BKN020CB

METARs EXPIRÉS :
  • 301820Z 09004KT 030V150 9999 FEW045CB 27/16 Q1007 TEMPO 26025G45KT 3000 TSGRRA BKN020CB
  • 301750Z 09006KT 040V180 CAVOK 28/15 Q1007 TEMPO FM1830 26025G45KT 3000 TSGRRA BKN020CB
  • 301720Z 09008KT 030V160 CAVOK 28/15 Q1007 NOSIG
  • 301650Z VRB09G21KT CAVOK 30/15 Q1007 NOSIG
  • 301620Z 04006KT 350V090 CAVOK 30/13 Q1008 NOSIG

TAF TAF EDDG
Valide du 30 à 18h jusqu'au 01 à 18h UTC


301700Z 3018/0118 05004KT 9999 FEW040
BECMG 3018/3020 27006KT
PROB40
TEMPO 3018/0101 27015G30KT TSRA BKN020CB
PROB30
TEMPO 3018/3021 22030G50KT 2500 +TSRA OVC014CB
TEMPO 3023/0108 BKN010
PROB30
TEMPO 0101/0106 RA BKN007
BECMG 0110/0112 26011KT



MET'MAP, la Météo Aéronautique d'un coup d'oeil ! - Copyright ORBIFLY Décembre 2007 - Disclaimer

ORBIFLY MET'MAP TEAM :

Programmation & Développement : Alexandra Zaïnal
Sur une idée originale de : Baudouin d'Aumeries
Soutien technique & logistique : Manuel Goepfert
Assistance : Marc-Olivier Méhu




SOURCES & CREDITS :

   NOAA